Karnak, Illinois
Current Conditions -  °F | °C
As of 4:55 PM on Wednesday 22 Oct 2014 (Local Time) from KM30 Reporting Station
Clear Clear  
Wind Chill: 17°   Ceiling: Unl
Heat Index: 17°   Visibility: 7mi
Dew Point:   Wind: 3mph
Humidity: 47%   Direction: 50°NE
Pressure: 30.21"   Gusts: NA
Location:  37.29°N, 88.98°W
Report Text: KM30 222155Z AUTO 05003KT 7SM CLR 17/06 A3021 RMK AO2 T01720058
Loading
Personal Weather Stations






























Interactive Weather Map
Tropical Storm Tracking
New forecast layout! Learn more

10-Day Weather Forecast

Advertisements
Track Severe Weather on mobile